createdAt,value
2019-02-15T00:03:51.685Z,34.50
2019-02-15T00:08:56.985Z,34.55
2019-02-15T00:14:02.306Z,33.63
2019-02-15T00:19:12.165Z,33.60
2019-02-15T00:24:17.460Z,33.78
2019-02-15T00:29:22.776Z,31.05
2019-02-15T00:34:28.155Z,30.72
2019-02-15T00:39:33.450Z,33.48
2019-02-15T00:44:38.833Z,31.87
2019-02-15T00:49:45.984Z,33.05
2019-02-15T00:55:11.262Z,28.60
2019-02-15T01:00:20.821Z,31.00
2019-02-15T01:05:43.984Z,31.20
2019-02-15T01:10:50.900Z,33.70
2019-02-15T01:15:56.193Z,32.13
2019-02-15T01:21:01.492Z,31.35
2019-02-15T01:26:23.761Z,33.60
2019-02-15T01:31:30.704Z,34.10
2019-02-15T01:36:37.669Z,30.97
2019-02-15T01:41:44.609Z,35.08
2019-02-15T01:46:51.577Z,35.52
2019-02-15T01:51:56.890Z,35.68
2019-02-15T01:57:02.177Z,37.00
2019-02-15T02:02:07.566Z,38.92
2019-02-15T02:07:12.857Z,36.45
2019-02-15T02:12:18.148Z,34.73
2019-02-15T02:17:23.521Z,30.60
2019-02-15T02:22:28.865Z,37.65
2019-02-15T02:27:34.170Z,37.23
2019-02-15T02:32:39.452Z,36.28
2019-02-15T02:37:44.752Z,38.55
2019-02-15T02:42:50.041Z,37.03
2019-02-15T02:47:55.435Z,40.70
2019-02-15T02:53:00.730Z,39.63
2019-02-15T02:58:06.031Z,41.08
2019-02-15T03:03:11.356Z,37.08
2019-02-15T03:08:16.715Z,38.70
2019-02-15T03:13:22.092Z,37.98
2019-02-15T03:18:27.369Z,36.63
2019-02-15T03:23:32.677Z,37.95
2019-02-15T03:28:38.085Z,38.58
2019-02-15T03:33:43.435Z,40.00
2019-02-15T03:38:50.362Z,37.63
2019-02-15T03:43:55.921Z,40.90
2019-02-15T03:49:01.237Z,38.83
2019-02-15T03:54:06.535Z,41.10
2019-02-15T03:59:11.838Z,40.55
2019-02-15T04:04:17.136Z,41.30
2019-02-15T04:09:22.502Z,37.00
2019-02-15T04:14:32.848Z,36.38
2019-02-15T04:19:34.907Z,37.75
2019-02-15T04:24:40.220Z,36.35
2019-02-15T04:29:45.529Z,36.88
2019-02-15T04:34:50.839Z,36.05
2019-02-15T04:39:56.162Z,38.78
2019-02-15T04:45:01.441Z,37.23
2019-02-15T04:50:08.600Z,38.23
2019-02-15T04:55:14.185Z,36.48
2019-02-15T05:00:19.599Z,36.03
2019-02-15T05:05:25.067Z,35.25
2019-02-15T05:10:30.370Z,30.48
2019-02-15T05:15:35.665Z,33.05
2019-02-15T05:20:40.969Z,33.63
2019-02-15T05:25:46.519Z,33.80
2019-02-15T05:30:52.864Z,35.03
2019-02-15T05:35:58.243Z,38.60
2019-02-15T05:41:03.535Z,40.88
2019-02-15T05:46:08.849Z,36.00
2019-02-15T05:51:14.349Z,36.17
2019-02-15T05:56:19.761Z,34.35
2019-02-15T06:01:26.399Z,35.15
2019-02-15T06:06:31.707Z,36.48
2019-02-15T06:11:37.020Z,34.53
2019-02-15T06:16:42.740Z,32.78
2019-02-15T06:21:48.135Z,35.38
2019-02-15T06:26:53.709Z,38.10
2019-02-15T06:32:00.506Z,35.55
2019-02-15T06:37:05.810Z,36.65
2019-02-15T06:42:11.112Z,34.18
2019-02-15T06:47:16.421Z,34.05
2019-02-15T06:52:21.705Z,35.28
2019-02-15T06:57:27.015Z,37.13
2019-02-15T07:02:34.073Z,34.75
2019-02-15T07:07:39.367Z,33.83
2019-02-15T07:12:44.670Z,33.58
2019-02-15T07:17:49.956Z,32.83
2019-02-15T07:22:55.309Z,29.92
2019-02-15T07:28:00.683Z,31.85
2019-02-15T07:33:05.998Z,30.08
2019-02-15T07:38:12.130Z,30.57
2019-02-15T07:43:17.503Z,29.10
2019-02-15T07:48:22.815Z,28.80
2019-02-15T07:53:28.138Z,30.40
2019-02-15T07:58:33.431Z,30.40
2019-02-15T08:03:38.745Z,25.90
2019-02-15T08:08:44.038Z,26.33
2019-02-15T08:13:49.350Z,23.47
2019-02-15T08:18:54.666Z,24.95
2019-02-15T08:24:01.045Z,24.65
2019-02-15T08:29:06.371Z,23.15
2019-02-15T08:34:11.672Z,24.60
2019-02-15T08:39:16.975Z,24.02
2019-02-15T08:44:22.586Z,21.85
2019-02-15T08:49:27.967Z,21.25
2019-02-15T08:54:33.251Z,19.77
2019-02-15T08:59:38.613Z,22.07
2019-02-15T09:04:43.921Z,19.17
2019-02-15T09:09:49.232Z,19.48
2019-02-15T09:14:54.786Z,19.27
2019-02-15T09:20:00.272Z,19.82
2019-02-15T09:25:07.908Z,20.52
2019-02-15T09:30:14.573Z,19.67
2019-02-15T09:35:19.900Z,20.35
2019-02-15T09:40:25.417Z,19.27
2019-02-15T09:45:30.710Z,20.62
2019-02-15T09:50:36.012Z,17.65
2019-02-15T09:55:41.329Z,16.32
2019-02-15T10:00:47.137Z,17.50
2019-02-15T10:05:52.657Z,19.23
2019-02-15T10:10:58.081Z,18.75
2019-02-15T10:16:04.653Z,19.00
2019-02-15T10:21:09.961Z,18.82
2019-02-15T10:26:15.265Z,19.95
2019-02-15T10:31:20.565Z,21.27
2019-02-15T10:36:26.082Z,21.10
2019-02-15T10:41:31.378Z,20.30
2019-02-15T10:46:38.064Z,20.60
2019-02-15T10:51:43.587Z,20.30
2019-02-15T10:56:48.893Z,20.57
2019-02-15T11:01:54.197Z,21.90
2019-02-15T11:06:59.537Z,21.00
2019-02-15T11:12:04.929Z,23.00
2019-02-15T11:17:10.365Z,22.60
2019-02-15T11:22:15.657Z,21.50
2019-02-15T11:27:21.031Z,22.70
2019-02-15T11:32:26.325Z,24.77
2019-02-15T11:37:31.635Z,23.95
2019-02-15T11:42:36.956Z,22.15
2019-02-15T11:47:42.693Z,22.58
2019-02-15T11:52:48.009Z,24.25
2019-02-15T11:57:53.299Z,22.05
2019-02-15T12:02:58.607Z,23.62
2019-02-15T12:08:03.922Z,20.88
2019-02-15T12:13:09.210Z,17.95
2019-02-15T12:18:14.514Z,18.00
2019-02-15T12:23:19.807Z,19.48
2019-02-15T12:28:25.256Z,21.17
2019-02-15T12:33:30.556Z,19.48
2019-02-15T12:38:35.920Z,21.40
2019-02-15T12:43:41.229Z,21.80
2019-02-15T12:48:47.526Z,19.52
2019-02-15T12:53:52.834Z,18.85
2019-02-15T12:58:58.198Z,18.05
2019-02-15T13:04:03.713Z,19.00
2019-02-15T13:09:09.178Z,18.67
2019-02-15T13:14:14.554Z,18.65
2019-02-15T13:19:19.853Z,17.32
2019-02-15T13:24:25.167Z,18.17
2019-02-15T13:29:30.454Z,18.42
2019-02-15T13:34:35.743Z,17.73
2019-02-15T13:39:41.126Z,16.23
2019-02-15T13:44:46.514Z,15.55
2019-02-15T13:49:51.798Z,22.35
2019-02-15T13:55:00.378Z,21.68
2019-02-15T14:00:10.299Z,21.00
2019-02-15T14:05:15.792Z,18.73
2019-02-15T14:10:21.887Z,21.87
2019-02-15T14:15:27.283Z,19.23
2019-02-15T14:20:32.582Z,17.75
2019-02-15T14:25:37.953Z,22.52
2019-02-15T14:30:43.264Z,22.45
2019-02-15T14:35:48.563Z,25.05
2019-02-15T14:40:53.865Z,22.30
2019-02-15T14:45:59.233Z,23.85
2019-02-15T14:51:04.561Z,24.92
2019-02-15T14:56:09.862Z,25.05
2019-02-15T15:01:15.177Z,25.72
2019-02-15T15:06:20.558Z,25.20
2019-02-15T15:11:26.996Z,22.77
2019-02-15T15:16:32.289Z,20.82
2019-02-15T15:21:37.615Z,22.95
2019-02-15T15:26:42.974Z,20.88
2019-02-15T15:31:48.230Z,24.37
2019-02-15T15:36:54.428Z,25.48
2019-02-15T15:41:59.757Z,27.60
2019-02-15T15:47:05.929Z,22.45
2019-02-15T15:52:11.308Z,28.57
2019-02-15T15:57:16.650Z,38.17
2019-02-15T16:02:22.015Z,37.63
2019-02-15T16:07:27.323Z,37.00
2019-02-15T16:12:32.832Z,37.50
2019-02-15T16:17:38.154Z,40.95
2019-02-15T16:22:43.536Z,30.62
2019-02-15T16:27:48.864Z,25.72
2019-02-15T16:32:57.117Z,27.87
2019-02-15T16:38:02.423Z,29.98
2019-02-15T16:43:08.642Z,40.63
2019-02-15T16:48:14.018Z,107.30
2019-02-15T16:53:19.322Z,49.40
2019-02-15T16:58:24.641Z,65.92
2019-02-15T17:03:30.169Z,33.73
2019-02-15T17:08:35.540Z,33.50
2019-02-15T17:13:40.829Z,44.03
2019-02-15T17:18:51.739Z,67.65
2019-02-15T17:23:53.210Z,38.73
2019-02-15T17:28:58.521Z,41.23
2019-02-15T17:34:03.833Z,52.15
2019-02-15T17:39:09.138Z,37.10
2019-02-15T17:44:14.445Z,52.75
2019-02-15T17:49:19.764Z,51.30
2019-02-15T17:54:25.071Z,41.50
2019-02-15T17:59:30.381Z,36.75
2019-02-15T18:04:35.690Z,37.90
2019-02-15T18:09:41.191Z,35.35
2019-02-15T18:14:47.607Z,36.05
2019-02-15T18:19:52.987Z,34.92
2019-02-15T18:24:58.337Z,38.88
2019-02-15T18:30:04.576Z,32.93
2019-02-15T18:35:09.953Z,34.60
2019-02-15T18:40:16.409Z,41.45
2019-02-15T18:45:22.782Z,48.85
2019-02-15T18:50:28.089Z,43.38
2019-02-15T18:55:33.397Z,39.83
2019-02-15T19:00:38.709Z,43.17
2019-02-15T19:05:44.102Z,43.52
2019-02-15T19:10:49.385Z,47.78
2019-02-15T19:15:54.679Z,44.65
2019-02-15T19:20:59.993Z,44.70
2019-02-15T19:26:05.299Z,41.55
2019-02-15T19:31:10.951Z,44.13
2019-02-15T19:36:16.250Z,35.30
2019-02-15T19:41:21.559Z,33.30
2019-02-15T19:46:26.855Z,36.28
2019-02-15T19:51:32.286Z,33.63
2019-02-15T19:56:37.652Z,35.10
2019-02-15T20:01:44.006Z,30.95
2019-02-15T20:06:49.322Z,34.50
2019-02-15T20:11:54.701Z,39.45
2019-02-15T20:17:00.035Z,36.93
2019-02-15T20:22:05.334Z,34.43
2019-02-15T20:27:10.978Z,56.63
2019-02-15T20:32:16.520Z,41.40
2019-02-15T20:37:21.997Z,44.65
2019-02-15T20:42:27.901Z,48.25
2019-02-15T20:47:33.273Z,44.75
2019-02-15T20:52:38.577Z,46.55
2019-02-15T20:57:43.867Z,47.35
2019-02-15T21:02:49.166Z,46.88
2019-02-15T21:07:54.468Z,60.55
2019-02-15T21:12:59.785Z,66.33
2019-02-15T21:18:05.099Z,59.25
2019-02-15T21:23:10.397Z,57.05
2019-02-15T21:28:15.712Z,41.50
2019-02-15T21:33:21.001Z,45.15
2019-02-15T21:38:26.461Z,46.68
2019-02-15T21:43:31.841Z,46.50
2019-02-15T21:48:37.146Z,51.60
2019-02-15T21:53:42.463Z,59.23
2019-02-15T21:58:47.759Z,62.70
2019-02-15T22:03:53.074Z,64.97
2019-02-15T22:08:58.363Z,59.25
2019-02-15T22:14:05.274Z,58.55
2019-02-15T22:19:10.842Z,57.35
2019-02-15T22:24:16.261Z,48.20
2019-02-15T22:29:21.627Z,46.45
2019-02-15T22:34:28.474Z,49.85
2019-02-15T22:39:35.646Z,51.35
2019-02-15T22:44:40.953Z,41.85
2019-02-15T22:49:46.256Z,39.80
2019-02-15T22:54:51.553Z,38.38
2019-02-15T23:00:00.973Z,42.83
2019-02-15T23:05:04.983Z,41.23
2019-02-15T23:10:12.035Z,41.02
2019-02-15T23:15:17.884Z,44.03
2019-02-15T23:20:23.429Z,46.98
2019-02-15T23:25:28.721Z,42.58
2019-02-15T23:30:34.320Z,42.15
2019-02-15T23:35:39.762Z,42.80
2019-02-15T23:40:46.139Z,45.48
2019-02-15T23:45:51.510Z,47.85
2019-02-15T23:50:57.891Z,49.15
2019-02-15T23:56:03.192Z,48.85
